createdAt,value
2019-05-20T00:00:39.867Z,88.06
2019-05-20T00:03:46.990Z,85.73
2019-05-20T00:06:53.638Z,85.35
2019-05-20T00:10:00.146Z,82.72
2019-05-20T00:13:06.662Z,83.18
2019-05-20T00:16:13.320Z,85.20
2019-05-20T00:19:20.277Z,85.87
2019-05-20T00:22:26.735Z,85.99
2019-05-20T00:25:33.637Z,85.47
2019-05-20T00:28:40.208Z,85.00
2019-05-20T00:31:46.742Z,83.84
2019-05-20T00:34:53.253Z,82.67
2019-05-20T00:38:09.259Z,81.60
2019-05-20T00:41:16.748Z,82.73
2019-05-20T00:44:23.287Z,82.00
2019-05-20T00:47:30.171Z,83.01
2019-05-20T00:50:36.889Z,82.76
2019-05-20T00:53:44.832Z,81.08
2019-05-20T00:56:54.006Z,82.12
2019-05-20T01:00:00.469Z,82.49
2019-05-20T01:03:07.065Z,85.12
2019-05-20T01:06:13.627Z,83.32
2019-05-20T01:09:20.153Z,84.72
2019-05-20T01:12:28.330Z,84.05
2019-05-20T01:15:35.028Z,83.56
2019-05-20T01:18:43.223Z,80.36
2019-05-20T01:21:49.923Z,86.12
2019-05-20T01:24:56.432Z,85.83
2019-05-20T01:28:03.962Z,84.36
2019-05-20T01:31:10.445Z,81.58
2019-05-20T01:34:17.081Z,82.00
2019-05-20T01:37:23.708Z,85.02
2019-05-20T01:40:30.226Z,89.19
2019-05-20T01:43:36.670Z,87.98
2019-05-20T01:46:43.897Z,88.35
2019-05-20T01:49:50.416Z,86.22
2019-05-20T01:52:57.000Z,86.45
2019-05-20T01:56:03.718Z,88.01
2019-05-20T01:59:10.338Z,87.97
2019-05-20T02:02:17.194Z,88.88
2019-05-20T02:05:23.786Z,87.69
2019-05-20T02:08:30.279Z,88.08
2019-05-20T02:11:37.208Z,87.87
2019-05-20T02:14:53.310Z,86.28
2019-05-20T02:17:59.846Z,85.56
2019-05-20T02:21:06.290Z,83.39
2019-05-20T02:24:14.504Z,83.39
2019-05-20T02:27:24.121Z,86.05
2019-05-20T02:30:30.403Z,86.81
2019-05-20T02:33:50.818Z,88.87
2019-05-20T02:36:48.317Z,88.85
2019-05-20T02:39:56.910Z,87.89
2019-05-20T02:43:03.435Z,89.12
2019-05-20T02:46:10.363Z,89.62
2019-05-20T02:49:17.000Z,89.83
2019-05-20T02:52:23.617Z,90.28
2019-05-20T02:55:30.606Z,86.36
2019-05-20T02:58:38.793Z,89.07
2019-05-20T03:01:46.113Z,88.12
2019-05-20T03:04:54.863Z,87.82
2019-05-20T03:08:01.604Z,88.61
2019-05-20T03:11:09.914Z,91.50
2019-05-20T03:14:16.577Z,90.78
2019-05-20T03:17:23.324Z,89.69
2019-05-20T03:20:31.101Z,89.09
2019-05-20T03:23:37.752Z,92.57
2019-05-20T03:26:45.033Z,91.97
2019-05-20T03:29:51.630Z,90.30
2019-05-20T03:32:58.620Z,89.39
2019-05-20T03:36:05.392Z,88.31
2019-05-20T03:39:11.938Z,89.62
2019-05-20T03:42:18.673Z,87.92
2019-05-20T03:45:25.321Z,90.61
2019-05-20T03:48:31.817Z,90.41
2019-05-20T03:51:38.742Z,89.73
2019-05-20T03:54:46.561Z,89.11
2019-05-20T03:57:53.832Z,84.82
2019-05-20T04:01:00.469Z,87.44
2019-05-20T04:04:07.045Z,88.89
2019-05-20T04:07:14.549Z,87.34
2019-05-20T04:10:21.115Z,90.02
2019-05-20T04:13:27.709Z,91.60
2019-05-20T04:16:35.174Z,90.11
2019-05-20T04:19:42.931Z,90.98
2019-05-20T04:22:49.363Z,90.62
2019-05-20T04:25:55.828Z,88.65
2019-05-20T04:29:02.947Z,90.35
2019-05-20T04:32:11.726Z,90.55
2019-05-20T04:35:22.943Z,89.48
2019-05-20T04:38:27.758Z,89.95
2019-05-20T04:41:35.796Z,90.04
2019-05-20T04:44:44.343Z,90.47
2019-05-20T04:47:50.933Z,90.23
2019-05-20T04:50:57.493Z,90.84
2019-05-20T04:54:03.968Z,90.41
2019-05-20T04:57:10.753Z,91.24
2019-05-20T05:00:41.037Z,91.42
2019-05-20T05:03:47.814Z,91.06
2019-05-20T05:06:54.678Z,93.29
2019-05-20T05:10:01.138Z,87.65
2019-05-20T05:13:09.522Z,90.45
2019-05-20T05:16:16.141Z,92.04
2019-05-20T05:19:22.916Z,91.72
2019-05-20T05:22:29.772Z,90.36
2019-05-20T05:25:36.575Z,91.79
2019-05-20T05:28:44.056Z,91.92
2019-05-20T05:31:50.949Z,91.35
2019-05-20T05:34:57.746Z,91.67
2019-05-20T05:38:07.118Z,90.76
2019-05-20T05:41:13.848Z,91.53
2019-05-20T05:44:20.612Z,91.57
2019-05-20T05:47:27.052Z,91.96
2019-05-20T05:50:33.860Z,90.44
2019-05-20T05:53:40.468Z,89.12
2019-05-20T05:56:48.739Z,88.79
2019-05-20T05:59:55.220Z,86.09
2019-05-20T06:03:02.036Z,86.94
2019-05-20T06:06:12.630Z,87.24
2019-05-20T06:09:18.777Z,84.22
2019-05-20T06:12:25.285Z,84.06
2019-05-20T06:15:31.801Z,87.22
2019-05-20T06:18:38.325Z,84.91
2019-05-20T06:21:48.170Z,87.06
2019-05-20T06:24:54.831Z,87.95
2019-05-20T06:28:01.406Z,86.18
2019-05-20T06:31:07.901Z,87.60
2019-05-20T06:34:16.768Z,87.54
2019-05-20T06:37:25.724Z,87.63
2019-05-20T06:40:32.958Z,88.71
2019-05-20T06:43:39.652Z,84.25
2019-05-20T06:46:46.404Z,86.64
2019-05-20T06:49:52.976Z,85.26
2019-05-20T06:52:59.531Z,86.94
2019-05-20T06:56:06.180Z,87.80
2019-05-20T06:59:12.719Z,87.10
2019-05-20T07:02:19.228Z,86.35
2019-05-20T07:05:28.558Z,86.95
2019-05-20T07:08:35.039Z,87.31
2019-05-20T07:11:52.652Z,87.19
2019-05-20T07:14:56.930Z,87.15
2019-05-20T07:18:03.459Z,86.57
2019-05-20T07:21:10.223Z,85.38
2019-05-20T07:24:17.023Z,83.56
2019-05-20T07:27:23.481Z,83.67
2019-05-20T07:30:30.187Z,82.46
2019-05-20T07:33:36.786Z,81.54
2019-05-20T07:37:01.906Z,84.09
2019-05-20T07:39:55.698Z,84.11
2019-05-20T07:43:03.938Z,84.68
2019-05-20T07:46:11.738Z,85.11
2019-05-20T07:49:18.535Z,83.47
2019-05-20T07:52:26.535Z,83.38
2019-05-20T07:55:35.822Z,84.97
2019-05-20T07:58:47.763Z,84.51
2019-05-20T08:01:57.425Z,83.25
2019-05-20T08:05:05.013Z,83.66
2019-05-20T08:08:11.734Z,83.82
2019-05-20T08:11:18.326Z,83.65
2019-05-20T08:14:24.933Z,83.85
2019-05-20T08:17:31.379Z,82.41
2019-05-20T08:20:38.178Z,84.37
2019-05-20T08:23:50.139Z,83.28
2019-05-20T08:26:57.384Z,84.50
2019-05-20T08:30:04.624Z,83.81
2019-05-20T08:33:11.372Z,81.95
2019-05-20T08:36:17.835Z,83.22
2019-05-20T08:39:24.301Z,82.51
2019-05-20T08:42:30.970Z,82.08
2019-05-20T08:45:38.373Z,81.61
2019-05-20T08:48:50.914Z,82.09
2019-05-20T08:51:57.510Z,81.99
2019-05-20T08:55:08.473Z,81.51
2019-05-20T08:58:14.942Z,82.09
2019-05-20T09:01:23.791Z,80.39
2019-05-20T09:04:30.327Z,80.71
2019-05-20T09:07:40.044Z,81.02
2019-05-20T09:10:46.715Z,82.16
2019-05-20T09:13:53.281Z,81.62
2019-05-20T09:16:59.915Z,81.62
2019-05-20T09:20:06.640Z,82.38
2019-05-20T09:23:13.230Z,82.80
2019-05-20T09:26:21.267Z,81.89
2019-05-20T09:29:27.844Z,82.61
2019-05-20T09:32:36.932Z,82.53
2019-05-20T09:35:43.862Z,82.78
2019-05-20T09:38:52.269Z,81.78
2019-05-20T09:41:58.969Z,82.07
2019-05-20T09:45:06.270Z,81.24
2019-05-20T09:48:13.632Z,80.98
2019-05-20T09:51:20.330Z,80.41
2019-05-20T09:54:26.737Z,81.38
2019-05-20T09:57:34.984Z,80.87
2019-05-20T10:00:44.014Z,82.20
2019-05-20T10:03:52.339Z,83.10
2019-05-20T10:06:58.884Z,82.50
2019-05-20T10:10:06.079Z,83.04
2019-05-20T10:13:12.737Z,82.03
2019-05-20T10:16:19.325Z,83.05
2019-05-20T10:19:27.672Z,82.97
2019-05-20T10:22:34.617Z,82.58
2019-05-20T10:25:42.754Z,84.98
2019-05-20T10:28:49.203Z,83.84
2019-05-20T10:31:55.742Z,83.12
2019-05-20T10:35:02.501Z,84.59
2019-05-20T10:38:09.010Z,85.43
2019-05-20T10:41:15.520Z,84.67
2019-05-20T10:44:22.387Z,85.30
2019-05-20T10:47:28.948Z,83.62
2019-05-20T10:50:36.747Z,84.60
2019-05-20T10:53:46.032Z,84.01
2019-05-20T10:56:52.810Z,84.55
2019-05-20T10:59:59.325Z,82.61
2019-05-20T11:03:05.902Z,84.15
2019-05-20T11:06:12.675Z,84.94
2019-05-20T11:09:19.544Z,84.16
2019-05-20T11:12:27.504Z,82.78
2019-05-20T11:15:34.580Z,84.00
2019-05-20T11:18:41.549Z,82.25
2019-05-20T11:21:48.582Z,81.91
2019-05-20T11:24:55.158Z,81.78
2019-05-20T11:28:01.930Z,83.04
2019-05-20T11:31:08.623Z,84.88
2019-05-20T11:34:15.246Z,84.00
2019-05-20T11:37:22.009Z,86.35
2019-05-20T11:40:28.632Z,85.00
2019-05-20T11:43:35.202Z,87.27
2019-05-20T11:46:44.420Z,86.71
2019-05-20T11:49:51.117Z,89.04
2019-05-20T11:52:58.811Z,88.30
2019-05-20T11:56:05.573Z,88.61
2019-05-20T11:59:12.079Z,88.46
2019-05-20T12:02:22.094Z,87.08
2019-05-20T12:05:28.656Z,87.96
2019-05-20T12:08:35.239Z,87.58
2019-05-20T12:11:44.074Z,88.04
2019-05-20T12:14:50.530Z,89.62
2019-05-20T12:17:57.348Z,90.37
2019-05-20T12:21:03.888Z,89.86
2019-05-20T12:24:10.381Z,91.19
2019-05-20T12:27:17.373Z,91.72
2019-05-20T12:30:24.248Z,91.93
2019-05-20T12:33:30.778Z,93.12
2019-05-20T12:36:37.341Z,94.28
2019-05-20T12:39:44.205Z,94.72
2019-05-20T12:42:51.029Z,95.14
2019-05-20T12:45:58.526Z,97.94
2019-05-20T12:49:05.299Z,97.79
2019-05-20T12:52:12.267Z,98.87
2019-05-20T12:55:20.071Z,97.32
2019-05-20T12:58:26.842Z,96.43
2019-05-20T13:01:33.463Z,96.90
2019-05-20T13:04:40.029Z,98.20
2019-05-20T13:07:46.824Z,97.52
2019-05-20T13:10:53.483Z,95.37
2019-05-20T13:13:59.980Z,96.13
2019-05-20T13:17:06.674Z,95.45
2019-05-20T13:20:13.885Z,94.33
2019-05-20T13:23:20.564Z,94.91
2019-05-20T13:26:27.138Z,95.61
2019-05-20T13:29:33.695Z,94.14
2019-05-20T13:32:40.282Z,93.61
2019-05-20T13:35:48.496Z,95.28
2019-05-20T13:38:55.155Z,95.45
2019-05-20T13:42:02.641Z,96.52
2019-05-20T13:45:09.691Z,95.27
2019-05-20T13:48:16.425Z,95.69
2019-05-20T13:51:22.883Z,96.49
2019-05-20T13:54:29.358Z,94.06
2019-05-20T13:57:37.066Z,95.45
2019-05-20T14:00:45.138Z,95.86
2019-05-20T14:03:51.993Z,93.84
2019-05-20T14:06:58.524Z,93.67
2019-05-20T14:10:05.465Z,92.66
2019-05-20T14:13:12.144Z,91.31
2019-05-20T14:16:18.663Z,91.82
2019-05-20T14:19:26.448Z,90.37
2019-05-20T14:22:34.367Z,89.87
2019-05-20T14:25:40.944Z,87.66
2019-05-20T14:28:47.837Z,87.71
2019-05-20T14:31:54.315Z,88.78
2019-05-20T14:35:00.882Z,88.92
2019-05-20T14:38:07.323Z,88.31
2019-05-20T14:41:21.488Z,92.60
2019-05-20T14:44:22.037Z,90.42
2019-05-20T14:47:28.502Z,88.76
2019-05-20T14:50:34.997Z,88.22
2019-05-20T14:53:41.608Z,86.32
2019-05-20T14:56:48.635Z,87.36
2019-05-20T14:59:55.321Z,87.17
2019-05-20T15:03:01.859Z,87.37
2019-05-20T15:06:08.475Z,86.63
2019-05-20T15:09:15.967Z,86.75
2019-05-20T15:12:22.707Z,85.52
2019-05-20T15:15:29.468Z,88.69
2019-05-20T15:18:35.986Z,87.26
2019-05-20T15:21:43.740Z,86.72
2019-05-20T15:24:50.365Z,87.92
2019-05-20T15:27:57.046Z,88.35
2019-05-20T15:31:03.675Z,89.35
2019-05-20T15:34:10.125Z,90.57
2019-05-20T15:37:16.877Z,88.73
2019-05-20T15:40:24.510Z,87.07
2019-05-20T15:43:31.278Z,89.66
2019-05-20T15:46:38.060Z,91.27
2019-05-20T15:49:44.930Z,92.67
2019-05-20T15:52:51.618Z,94.55
2019-05-20T15:55:58.073Z,91.96
2019-05-20T15:59:04.652Z,93.33
2019-05-20T16:02:11.645Z,92.77
2019-05-20T16:05:18.668Z,91.61
2019-05-20T16:08:25.230Z,93.58
2019-05-20T16:11:31.899Z,90.77
2019-05-20T16:14:38.626Z,92.37
2019-05-20T16:17:48.492Z,93.12
2019-05-20T16:20:55.393Z,93.01
2019-05-20T16:24:01.857Z,92.13
2019-05-20T16:27:08.542Z,92.32
2019-05-20T16:30:15.803Z,92.63
2019-05-20T16:33:22.671Z,91.15
2019-05-20T16:36:32.226Z,92.80
2019-05-20T16:39:38.852Z,92.36
2019-05-20T16:42:45.839Z,91.51
2019-05-20T16:45:52.417Z,91.82
2019-05-20T16:48:59.094Z,93.15
2019-05-20T16:52:05.927Z,93.47
2019-05-20T16:55:12.846Z,92.80
2019-05-20T16:58:19.508Z,91.98
2019-05-20T17:01:28.302Z,92.53
2019-05-20T17:04:35.411Z,91.67
2019-05-20T17:07:43.375Z,93.77
2019-05-20T17:10:49.925Z,94.13
2019-05-20T17:13:56.510Z,91.24
2019-05-20T17:17:03.181Z,93.17
2019-05-20T17:20:10.433Z,89.75
2019-05-20T17:23:17.015Z,91.95
2019-05-20T17:26:23.519Z,89.88
2019-05-20T17:29:30.393Z,91.23
2019-05-20T17:32:37.250Z,92.19
2019-05-20T17:35:44.421Z,94.32
2019-05-20T17:38:51.113Z,94.66
2019-05-20T17:41:57.885Z,96.11
2019-05-20T17:45:04.641Z,96.03
2019-05-20T17:48:11.191Z,97.95
2019-05-20T17:51:17.831Z,96.47
2019-05-20T17:54:24.453Z,97.86
2019-05-20T17:57:31.009Z,96.02
2019-05-20T18:00:37.612Z,94.58
2019-05-20T18:03:45.950Z,97.48
2019-05-20T18:06:52.934Z,97.59
2019-05-20T18:09:59.464Z,98.49
2019-05-20T18:13:05.969Z,97.56
2019-05-20T18:16:15.370Z,99.13
2019-05-20T18:19:21.861Z,95.83
2019-05-20T18:22:31.647Z,96.31
2019-05-20T18:25:38.336Z,95.73
2019-05-20T18:28:49.185Z,94.80
2019-05-20T18:31:55.837Z,91.54
2019-05-20T18:35:06.770Z,93.55
2019-05-20T18:38:15.242Z,96.12
2019-05-20T18:41:23.338Z,94.17
2019-05-20T18:44:29.947Z,96.07
2019-05-20T18:47:36.648Z,95.12
2019-05-20T18:50:46.258Z,95.56
2019-05-20T18:53:52.855Z,95.34
2019-05-20T18:56:59.341Z,93.83
2019-05-20T19:00:06.489Z,93.23
2019-05-20T19:03:14.766Z,92.55
2019-05-20T19:06:21.305Z,96.15
2019-05-20T19:09:29.053Z,97.89
2019-05-20T19:12:35.750Z,96.88
2019-05-20T19:15:42.683Z,97.34
2019-05-20T19:18:49.226Z,98.24
2019-05-20T19:21:55.987Z,98.30
2019-05-20T19:25:04.667Z,98.30
2019-05-20T19:28:11.172Z,98.39
2019-05-20T19:31:17.775Z,99.19
2019-05-20T19:34:24.428Z,99.74
2019-05-20T19:37:31.597Z,99.27
2019-05-20T19:40:38.134Z,97.44
2019-05-20T19:43:47.703Z,99.42
2019-05-20T19:46:55.667Z,99.43
2019-05-20T19:50:02.268Z,100.00
2019-05-20T19:53:09.109Z,99.43
2019-05-20T19:56:15.571Z,100.00
2019-05-20T19:59:22.082Z,96.05
2019-05-20T20:02:28.648Z,97.37
2019-05-20T20:05:35.261Z,100.00
2019-05-20T20:08:44.703Z,99.65
2019-05-20T20:11:51.910Z,99.23
2019-05-20T20:14:58.363Z,100.00
2019-05-20T20:18:04.998Z,98.83
2019-05-20T20:21:12.418Z,99.77
2019-05-20T20:24:18.991Z,100.00
2019-05-20T20:27:25.522Z,100.00
2019-05-20T20:30:32.081Z,100.00
2019-05-20T20:33:38.533Z,99.74
2019-05-20T20:36:45.579Z,100.00
2019-05-20T20:39:52.083Z,99.89
2019-05-20T20:42:58.826Z,98.82
2019-05-20T20:46:05.380Z,100.00
2019-05-20T20:49:14.612Z,100.00
2019-05-20T20:52:20.030Z,99.89
2019-05-20T20:55:26.751Z,99.67
2019-05-20T20:58:33.286Z,94.60
2019-05-20T21:01:39.829Z,99.21
2019-05-20T21:04:46.408Z,96.51
2019-05-20T21:07:53.087Z,97.71
2019-05-20T21:10:59.543Z,99.60
2019-05-20T21:14:06.751Z,99.32
2019-05-20T21:17:13.325Z,98.89
2019-05-20T21:20:19.959Z,98.85
2019-05-20T21:23:27.944Z,99.04
2019-05-20T21:26:34.576Z,99.58
2019-05-20T21:29:43.794Z,99.38
2019-05-20T21:32:50.312Z,100.00
2019-05-20T21:35:56.847Z,99.73
2019-05-20T21:39:03.921Z,99.47
2019-05-20T21:42:10.474Z,99.84
2019-05-20T21:45:18.340Z,100.00
2019-05-20T21:48:25.110Z,98.45
2019-05-20T21:51:32.769Z,100.00
2019-05-20T21:54:39.527Z,98.71
2019-05-20T21:57:46.085Z,99.77
2019-05-20T22:00:54.852Z,98.20
2019-05-20T22:04:02.641Z,93.76
2019-05-20T22:07:10.350Z,95.91
2019-05-20T22:10:17.036Z,100.00
2019-05-20T22:13:23.532Z,100.00
2019-05-20T22:16:31.057Z,100.00
2019-05-20T22:19:38.970Z,96.65
2019-05-20T22:23:08.240Z,100.00
2019-05-20T22:26:14.730Z,100.00
2019-05-20T22:29:23.373Z,100.00
2019-05-20T22:32:29.979Z,100.00
2019-05-20T22:35:36.682Z,100.00
2019-05-20T22:38:44.650Z,100.00
2019-05-20T22:41:51.139Z,99.71
2019-05-20T22:44:57.624Z,100.00
2019-05-20T22:48:04.145Z,100.00
2019-05-20T22:51:10.874Z,100.00
2019-05-20T22:54:17.582Z,100.00
2019-05-20T22:57:24.069Z,100.00
2019-05-20T23:00:31.495Z,100.00
2019-05-20T23:03:38.044Z,100.00
2019-05-20T23:06:44.921Z,100.00
2019-05-20T23:09:56.610Z,100.00
2019-05-20T23:13:03.115Z,100.00
2019-05-20T23:16:09.549Z,100.00
2019-05-20T23:19:16.396Z,100.00
2019-05-20T23:22:23.852Z,100.00
2019-05-20T23:25:32.458Z,100.00
2019-05-20T23:28:39.975Z,100.00
2019-05-20T23:31:48.158Z,100.00
2019-05-20T23:34:54.638Z,100.00
2019-05-20T23:38:01.300Z,100.00
2019-05-20T23:41:07.894Z,100.00
2019-05-20T23:44:14.380Z,100.00
2019-05-20T23:47:21.828Z,100.00
2019-05-20T23:50:28.354Z,100.00
2019-05-20T23:53:34.905Z,100.00
2019-05-20T23:56:44.216Z,100.00
2019-05-20T23:59:50.714Z,100.00
